Time;durP1;ratioP1;P1;durP2;ratioP2;P2;SDS_P1;SDS_P2;PMS_P1;PMS_P2;Temp;Humidity;BMP_temperature;BMP_pressure;BME280_temperature;BME280_humidity;BME280_pressure;Samples;Min_cycle;Max_cycle;Signal;HPM_P1;HPM_P2
2022/11/08 00:16:47;;;;;;;7.97;1.63;;;;;11.70;100393.00;;;;10442824;28;20251;-79
2022/11/08 00:21:49;;;;;;;3.57;1.70;;;;;11.70;100390.00;;;;10445676;28;20216;-79
2022/11/08 00:26:51;;;;;;;4.83;1.60;;;;;11.70;100386.00;;;;10446677;28;20188;-79
2022/11/08 00:31:53;;;;;;;9.40;2.27;;;;;11.70;100389.00;;;;10446446;28;20205;-79
2022/11/08 00:36:55;;;;;;;7.70;1.87;;;;;11.70;100379.00;;;;10437805;28;20204;-79
2022/11/08 00:41:57;;;;;;;5.03;1.60;;;;;11.60;100364.00;;;;10405317;28;20186;-79
2022/11/08 00:47:00;;;;;;;7.30;1.70;;;;;11.50;100365.00;;;;10420689;28;20187;-79
2022/11/08 00:52:03;;;;;;;6.17;1.57;;;;;11.40;100367.00;;;;10435672;28;20192;-79
2022/11/08 00:57:04;;;;;;;5.07;1.77;;;;;11.40;100370.00;;;;10445660;28;20221;-79
2022/11/08 01:02:06;;;;;;;2.90;1.50;;;;;11.30;100356.00;;;;10461423;28;20767;-79
2022/11/08 01:07:08;;;;;;;9.13;1.80;;;;;11.30;100351.00;;;;10420971;28;20268;-79
2022/11/08 01:12:10;;;;;;;8.53;2.63;;;;;11.20;100357.00;;;;10461052;28;20193;-79
2022/11/08 01:17:12;;;;;;;4.37;1.63;;;;;11.10;100361.00;;;;10420074;28;20224;-79
2022/11/08 01:22:14;;;;;;;3.30;1.90;;;;;11.10;100347.00;;;;10459268;28;20209;-79
2022/11/08 01:27:16;;;;;;;5.03;2.00;;;;;11.00;100335.00;;;;10494597;28;20190;-79
2022/11/08 01:32:17;;;;;;;5.63;2.37;;;;;11.00;100325.00;;;;10427630;28;20262;-79
2022/11/08 01:37:20;;;;;;;7.47;2.10;;;;;11.00;100314.00;;;;10442109;28;20217;-79
2022/11/08 01:42:32;;;;;;;8.77;2.10;;;;;10.90;100295.00;;;;10468301;28;20277;-79
2022/11/08 01:47:34;;;;;;;3.73;1.93;;;;;10.90;100279.00;;;;10451807;28;20199;-79
2022/11/08 01:52:38;;;;;;;6.60;2.43;;;;;10.80;100276.00;;;;10418377;28;20241;-80
2022/11/08 01:57:57;;;;;;;5.87;2.10;;;;;10.80;100259.00;;;;10418377;28;20220;-79
2022/11/08 02:03:00;;;;;;;6.33;1.90;;;;;10.90;100246.00;;;;10401583;28;20192;-79
2022/11/08 02:08:14;;;;;;;6.90;2.50;;;;;10.90;100238.00;;;;10425740;28;20214;-79
2022/11/08 02:13:26;;;;;;;4.57;1.77;;;;;10.80;100226.00;;;;10443117;28;20280;-79
2022/11/08 02:18:31;;;;;;;12.07;2.20;;;;;10.90;100223.00;;;;10426682;28;20209;-80
2022/11/08 02:23:39;;;;;;;5.53;1.90;;;;;10.90;100207.00;;;;10459229;28;20672;-79
2022/11/08 02:28:45;;;;;;;2.20;1.50;;;;;10.90;100215.00;;;;10449527;28;20198;-79
2022/11/08 02:33:48;;;;;;;6.17;2.20;;;;;10.80;100205.00;;;;10442316;28;20212;-79
2022/11/08 02:38:53;;;;;;;6.33;2.47;;;;;10.80;100197.00;;;;10442451;28;20244;-79
2022/11/08 02:43:56;;;;;;;5.60;2.10;;;;;10.80;100189.00;;;;10425788;28;20197;-79
2022/11/08 02:48:58;;;;;;;6.73;2.23;;;;;10.80;100187.00;;;;10458783;28;20189;-79
2022/11/08 02:54:00;;;;;;;5.40;1.70;;;;;10.80;100190.00;;;;10425847;28;20190;-79
2022/11/08 02:59:02;;;;;;;3.90;1.70;;;;;10.80;100178.00;;;;10458445;28;20214;-79
2022/11/08 03:04:04;;;;;;;4.47;1.60;;;;;10.80;100167.00;;;;10458132;28;20221;-79
2022/11/08 03:09:06;;;;;;;4.93;1.27;;;;;10.80;100159.00;;;;10441955;28;20204;-79
2022/11/08 03:14:08;;;;;;;3.20;1.60;;;;;10.80;100140.00;;;;10448238;28;20227;-79
2022/11/08 03:19:10;;;;;;;6.63;1.67;;;;;10.80;100128.00;;;;10440136;28;20221;-79
2022/11/08 03:24:12;;;;;;;1.80;1.43;;;;;10.80;100118.00;;;;10423786;28;20664;-79
2022/11/08 03:29:14;;;;;;;5.90;2.30;;;;;10.80;100093.00;;;;10408011;28;20197;-79
2022/11/08 03:34:16;;;;;;;5.30;1.83;;;;;10.80;100083.00;;;;10400976;28;20231;-79
2022/11/08 03:39:18;;;;;;;3.37;1.80;;;;;10.80;100073.00;;;;10481470;28;20556;-79
2022/11/08 03:44:20;;;;;;;5.43;1.60;;;;;10.80;100056.00;;;;10448565;28;20666;-79
2022/11/08 03:49:22;;;;;;;4.47;1.73;;;;;10.90;100042.00;;;;10447279;28;20275;-79
2022/11/08 03:54:23;;;;;;;3.13;1.40;;;;;10.90;100028.00;;;;10431272;28;20549;-79
2022/11/08 03:59:25;;;;;;;5.07;1.70;;;;;10.90;100037.00;;;;10447348;28;20700;-79
2022/11/08 04:04:27;;;;;;;3.53;1.50;;;;;10.90;100016.00;;;;10452580;28;20305;-79
2022/11/08 04:09:29;;;;;;;2.90;1.57;;;;;10.90;100016.00;;;;10406560;28;20236;-79
2022/11/08 04:25:12;;;;;;;2.53;1.53;;;;;10.80;100020.00;;;;10445981;28;20212;-79
2022/11/08 04:30:13;;;;;;;4.17;1.50;;;;;10.80;100010.00;;;;10446421;28;20189;-79
2022/11/08 04:35:15;;;;;;;2.90;1.70;;;;;10.70;100003.00;;;;10445693;28;20675;-79
2022/11/08 04:40:17;;;;;;;3.87;1.47;;;;;10.70;99997.00;;;;10446001;28;20185;-79
2022/11/08 04:45:19;;;;;;;2.10;1.30;;;;;10.60;100007.00;;;;10445868;28;20194;-79
2022/11/08 04:50:21;;;;;;;3.73;1.30;;;;;10.60;100004.00;;;;10445705;28;20194;-79
2022/11/08 04:55:23;;;;;;;3.10;1.60;;;;;10.60;100007.00;;;;10444014;28;20690;-79
2022/11/08 05:00:25;;;;;;;2.27;1.50;;;;;10.60;100013.00;;;;10477929;28;20192;-79
2022/11/08 05:05:27;;;;;;;2.67;1.57;;;;;10.60;99998.00;;;;10442114;28;20214;-79
2022/11/08 05:10:29;;;;;;;4.10;1.57;;;;;10.50;99994.00;;;;10456388;28;20201;-79
2022/11/08 05:15:31;;;;;;;2.70;1.80;;;;;10.50;99988.00;;;;10444766;28;20213;-79
2022/11/08 05:25:54;;;;;;;6.57;1.57;;;;;10.50;99998.00;;;;10460201;28;20208;-79
2022/11/08 05:30:56;;;;;;;5.37;1.30;;;;;10.50;99994.00;;;;10427631;28;20648;-79
2022/11/08 05:36:03;;;;;;;2.07;1.37;;;;;10.50;100007.00;;;;10420773;28;20217;-79
2022/11/08 05:41:14;;;;;;;1.50;1.40;;;;;10.40;99999.00;;;;10411187;28;20216;-79
2022/11/08 05:46:17;;;;;;;3.67;1.30;;;;;10.50;99994.00;;;;10443598;28;20185;-79
2022/11/08 05:51:20;;;;;;;3.13;1.70;;;;;10.50;100005.00;;;;10444026;28;20201;-79
2022/11/08 05:56:22;;;;;;;2.97;1.30;;;;;10.60;100006.00;;;;10443396;28;20210;-79
2022/11/08 06:01:23;;;;;;;2.83;1.13;;;;;10.60;99983.00;;;;10443348;28;20201;-79
2022/11/08 06:06:26;;;;;;;3.40;1.50;;;;;10.50;99980.00;;;;10431751;28;20222;-79
2022/11/08 06:11:28;;;;;;;2.90;1.13;;;;;10.50;99980.00;;;;10402164;28;20522;-79
2022/11/08 06:16:30;;;;;;;3.77;1.63;;;;;10.40;99973.00;;;;10422341;28;20247;-79
2022/11/08 06:21:31;;;;;;;4.03;1.40;;;;;10.40;99992.00;;;;10439072;28;20209;-79
2022/11/08 06:26:33;;;;;;;2.57;1.37;;;;;10.40;99997.00;;;;10417805;28;20211;-79
2022/11/08 06:31:35;;;;;;;1.33;1.20;;;;;10.40;100001.00;;;;10418201;28;20200;-79
2022/11/08 06:36:43;;;;;;;1.90;1.20;;;;;10.40;100013.00;;;;10431446;28;20723;-79
2022/11/08 06:41:45;;;;;;;3.47;1.50;;;;;10.40;100006.00;;;;10426577;28;20247;-79
2022/11/08 06:46:47;;;;;;;3.07;1.23;;;;;10.50;100010.00;;;;10445371;28;20672;-79
2022/11/08 06:51:50;;;;;;;1.73;1.10;;;;;10.50;100005.00;;;;10466423;28;20192;-79
2022/11/08 06:56:54;;;;;;;2.23;1.53;;;;;10.60;100000.00;;;;10433316;28;20210;-79
2022/11/08 07:01:56;;;;;;;3.63;1.30;;;;;10.60;100006.00;;;;10449690;28;20635;-79
2022/11/08 07:06:58;;;;;;;5.33;1.60;;;;;10.70;99991.00;;;;10413832;28;20213;-79
2022/11/08 07:12:00;;;;;;;2.53;1.20;;;;;10.80;99994.00;;;;10448972;28;20231;-79
2022/11/08 07:17:02;;;;;;;5.67;1.70;;;;;11.00;100001.00;;;;10449231;28;20206;-79
2022/11/08 07:22:04;;;;;;;3.50;1.50;;;;;11.00;99992.00;;;;10449219;28;20201;-79
2022/11/08 07:27:06;;;;;;;3.50;1.60;;;;;11.20;99977.00;;;;10448658;28;20231;-79
2022/11/08 07:32:08;;;;;;;4.07;1.60;;;;;11.30;99986.00;;;;10432004;28;20200;-79
2022/11/08 07:37:10;;;;;;;3.60;1.30;;;;;11.40;99998.00;;;;10423359;28;20202;-79
2022/11/08 07:42:11;;;;;;;2.90;1.60;;;;;11.70;99998.00;;;;10422869;28;20198;-78
2022/11/08 07:47:14;;;;;;;2.80;1.30;;;;;11.90;100006.00;;;;10431260;28;20284;-79
2022/11/08 07:52:16;;;;;;;2.00;1.20;;;;;12.00;100006.00;;;;10447527;28;20193;-79
2022/11/08 07:57:18;;;;;;;2.07;1.37;;;;;12.30;100008.00;;;;10430490;28;20206;-79
2022/11/08 08:02:20;;;;;;;3.27;1.60;;;;;12.50;100008.00;;;;10447785;28;20202;-79
2022/11/08 08:07:22;;;;;;;3.23;1.57;;;;;12.80;100017.00;;;;10428192;28;20218;-80
2022/11/08 08:12:24;;;;;;;3.13;1.30;;;;;12.90;100014.00;;;;10439949;28;20204;-80
2022/11/08 08:17:26;;;;;;;2.47;1.60;;;;;13.00;100027.00;;;;10438174;28;20688;-79
2022/11/08 08:22:28;;;;;;;2.83;1.33;;;;;13.20;100027.00;;;;10405218;28;20259;-79
2022/11/08 08:27:30;;;;;;;2.43;1.20;;;;;13.50;100021.00;;;;10392179;28;20256;-80
2022/11/08 08:32:33;;;;;;;2.50;1.40;;;;;13.90;100032.00;;;;10446008;28;20288;-79
2022/11/08 08:37:35;;;;;;;1.83;1.23;;;;;14.00;100028.00;;;;10438280;28;20221;-79
2022/11/08 08:42:37;;;;;;;2.10;1.60;;;;;14.00;100029.00;;;;10474346;28;20220;-79
2022/11/08 08:47:38;;;;;;;2.85;1.80;;;;;14.20;100005.00;;;;10429938;28;20193;-80
2022/11/08 08:52:40;;;;;;;2.88;1.50;;;;;14.50;100004.00;;;;10462002;28;20525;-79
2022/11/08 08:57:44;;;;;;;2.78;1.60;;;;;14.60;99995.00;;;;10462784;28;20251;-80
2022/11/08 09:02:46;;;;;;;4.70;1.50;;;;;15.10;100003.00;;;;10420852;28;20198;-79
2022/11/08 09:07:48;;;;;;;1.75;1.38;;;;;15.20;100018.00;;;;10471478;28;20217;-80
2022/11/08 09:12:50;;;;;;;2.30;1.35;;;;;15.30;100017.00;;;;10445514;28;20755;-79
2022/11/08 09:17:53;;;;;;;8.30;1.60;;;;;15.70;100037.00;;;;10447300;28;20202;-79
2022/11/08 09:22:55;;;;;;;3.55;1.15;;;;;15.90;100044.00;;;;10444224;28;20213;-80
2022/11/08 09:27:57;;;;;;;4.53;1.23;;;;;15.80;100039.00;;;;10444495;28;20178;-80
2022/11/08 09:32:59;;;;;;;2.78;1.20;;;;;15.50;100048.00;;;;10444040;28;20190;-80
2022/11/08 09:38:03;;;;;;;7.10;1.80;;;;;15.50;100035.00;;;;10420800;28;20222;-80
2022/11/08 09:43:24;;;;;;;3.40;1.50;;;;;15.50;100048.00;;;;10435983;28;20208;-80
2022/11/08 09:48:43;;;;;;;4.72;1.50;;;;;15.50;100039.00;;;;10444873;28;20208;-80
2022/11/08 09:53:51;;;;;;;2.83;1.48;;;;;15.70;100044.00;;;;10444127;28;20200;-80
2022/11/08 09:59:01;;;;;;;2.88;1.40;;;;;16.00;100048.00;;;;10460662;28;20206;-80
2022/11/08 10:04:24;;;;;;;2.63;1.17;;;;;16.00;100061.00;;;;10436150;28;20222;-79
2022/11/08 10:09:56;;;;;;;8.50;1.58;;;;;15.80;100052.00;;;;10419499;28;20190;-80
2022/11/08 10:15:25;;;;;;;6.25;1.52;;;;;15.80;100053.00;;;;10418947;28;20186;-80
2022/11/08 10:20:59;;;;;;;7.43;1.33;;;;;16.00;100065.00;;;;10419698;28;20264;-80
2022/11/08 10:26:12;;;;;;;3.10;1.55;;;;;16.30;100042.00;;;;10385033;28;20240;-80
2022/11/08 10:31:14;;;;;;;4.45;1.42;;;;;16.50;100058.00;;;;10443495;28;20186;-80
2022/11/08 10:36:40;;;;;;;2.55;1.45;;;;;16.80;100039.00;;;;10452533;28;20202;-80
2022/11/08 10:41:44;;;;;;;3.22;1.90;;;;;17.00;100034.00;;;;10435273;28;20197;-80
2022/11/08 10:47:10;;;;;;;1.92;1.20;;;;;17.10;100033.00;;;;10450923;28;20220;-80
2022/11/08 10:52:15;;;;;;;4.55;1.60;;;;;17.40;100045.00;;;;10447684;28;20460;-80
2022/11/08 10:57:23;;;;;;;4.00;2.00;;;;;17.60;100024.00;;;;10428047;28;20202;-80
2022/11/08 11:02:33;;;;;;;3.55;1.77;;;;;18.10;100023.00;;;;10409169;28;20522;-80
2022/11/08 11:07:36;;;;;;;2.55;1.55;;;;;18.70;100016.00;;;;10443167;28;20217;-80
2022/11/08 11:12:37;;;;;;;3.30;1.55;;;;;18.60;100023.00;;;;10466631;28;20681;-80
2022/11/08 11:17:43;;;;;;;1.77;1.40;;;;;18.10;100020.00;;;;10429744;28;20825;-80
2022/11/08 11:22:45;;;;;;;2.65;1.70;;;;;17.50;100022.00;;;;10466305;28;20190;-79
2022/11/08 11:27:59;;;;;;;4.45;1.90;;;;;17.50;100023.00;;;;10482364;28;20181;-79
2022/11/08 11:33:04;;;;;;;3.35;1.40;;;;;17.40;100013.00;;;;10465711;28;20185;-80
2022/11/08 11:38:17;;;;;;;1.98;1.08;;;;;17.60;99999.00;;;;10465295;28;20571;-80
2022/11/08 11:43:42;;;;;;;3.65;1.80;;;;;17.40;100002.00;;;;10449216;28;20189;-80
2022/11/08 11:49:10;;;;;;;5.75;1.83;;;;;17.30;100007.00;;;;10464831;28;20190;-80
2022/11/08 11:54:15;;;;;;;8.95;2.33;;;;;17.40;100000.00;;;;10465135;28;20178;-80
2022/11/08 11:59:41;;;;;;;5.10;1.50;;;;;17.40;99984.00;;;;10447970;28;20211;-80
2022/11/08 12:04:50;;;;;;;1.95;1.20;;;;;17.40;99971.00;;;;10434326;28;20313;-80
2022/11/08 12:10:19;;;;;;;3.80;1.40;;;;;17.40;99966.00;;;;10406138;28;20271;-79
2022/11/08 12:15:37;;;;;;;14.90;3.13;;;;;17.80;99965.00;;;;10422392;28;20200;-80
2022/11/08 12:20:44;;;;;;;3.28;1.35;;;;;17.90;99964.00;;;;10406056;28;20206;-79
2022/11/08 12:26:14;;;;;;;4.40;1.75;;;;;18.10;99967.00;;;;10406235;28;20199;-79
2022/11/08 12:31:23;;;;;;;40.05;5.07;;;;;18.30;99961.00;;;;10432397;28;20197;-80
2022/11/08 12:36:35;;;;;;;4.60;1.55;;;;;18.60;99951.00;;;;10446317;28;20213;-80
2022/11/08 12:42:01;;;;;;;6.97;2.65;;;;;18.50;99968.00;;;;10446042;28;20193;-79
2022/11/08 12:47:40;;;;;;;8.65;1.50;;;;;18.30;99968.00;;;;10446077;28;20644;-79
2022/11/08 12:52:45;;;;;;;4.57;1.42;;;;;17.90;99972.00;;;;10462841;28;20236;-80
2022/11/08 12:57:53;;;;;;;5.88;1.85;;;;;18.30;99970.00;;;;10430037;28;20212;-79
2022/11/08 13:03:10;;;;;;;2.28;1.33;;;;;18.40;99959.00;;;;10445702;28;20240;-79
2022/11/08 13:08:21;;;;;;;3.20;1.40;;;;;18.50;99960.00;;;;10420696;28;20196;-79
2022/11/08 13:13:44;;;;;;;5.75;1.70;;;;;18.70;99960.00;;;;10461540;28;20198;-79
2022/11/08 13:18:57;;;;;;;2.67;1.50;;;;;18.30;99950.00;;;;10420109;28;20259;-79
2022/11/08 13:24:05;;;;;;;4.95;1.67;;;;;18.40;99951.00;;;;10387760;28;20197;-80
2022/11/08 13:29:29;;;;;;;7.40;1.83;;;;;18.00;99953.00;;;;10406232;28;20193;-79
2022/11/08 13:34:54;;;;;;;3.67;1.60;;;;;17.60;99948.00;;;;10419566;28;20654;-80
2022/11/08 13:39:58;;;;;;;3.75;1.70;;;;;17.20;99929.00;;;;10419832;28;20206;-80
2022/11/08 13:45:16;;;;;;;4.30;1.40;;;;;17.10;99934.00;;;;10435893;28;20186;-79
2022/11/08 13:50:27;;;;;;;4.03;1.60;;;;;17.00;99938.00;;;;10419521;28;20189;-80
2022/11/08 13:56:16;;;;;;;6.43;1.90;;;;;17.10;99931.00;;;;10417737;28;20191;-79
2022/11/08 14:01:21;;;;;;;5.07;1.52;;;;;17.20;99932.00;;;;10406961;28;20194;-79
2022/11/08 14:06:40;;;;;;;6.97;2.40;;;;;17.20;99926.00;;;;10459786;28;20730;-79
2022/11/08 14:11:42;;;;;;;3.03;1.65;;;;;17.10;99935.00;;;;10459654;28;20556;-79
2022/11/08 14:17:12;;;;;;;3.92;1.40;;;;;17.00;99936.00;;;;10426810;28;20205;-79
2022/11/08 14:22:24;;;;;;;2.20;1.33;;;;;16.90;99941.00;;;;10443734;28;20212;-79
2022/11/08 14:27:38;;;;;;;2.97;1.60;;;;;16.90;99940.00;;;;10459427;28;20190;-79
2022/11/08 14:32:41;;;;;;;7.35;1.67;;;;;16.80;99928.00;;;;10443147;28;20186;-79
2022/11/08 14:37:43;;;;;;;5.50;1.30;;;;;16.80;99928.00;;;;10442380;28;20209;-79
2022/11/08 14:42:44;;;;;;;6.68;1.52;;;;;16.80;99932.00;;;;10442470;28;20193;-79
2022/11/08 14:47:52;;;;;;;3.20;1.73;;;;;16.80;99934.00;;;;10458874;28;20182;-79
2022/11/08 14:52:55;;;;;;;3.22;1.65;;;;;16.60;99914.00;;;;10475410;28;20276;-79
2022/11/08 14:58:11;;;;;;;2.33;1.30;;;;;16.30;99916.00;;;;10459035;28;20284;-78
2022/11/08 15:03:17;;;;;;;2.05;1.10;;;;;16.20;99907.00;;;;10474452;28;20182;-79
2022/11/08 15:08:29;;;;;;;2.80;1.73;;;;;16.30;99923.00;;;;10404912;28;20186;-79
2022/11/08 15:13:43;;;;;;;6.00;1.75;;;;;16.40;99901.00;;;;10441516;28;20186;-79
2022/11/08 15:18:45;;;;;;;2.00;1.25;;;;;16.40;99895.00;;;;10447068;28;20232;-80
2022/11/08 15:23:52;;;;;;;5.40;1.45;;;;;16.50;99900.00;;;;10432904;28;20223;-79
2022/11/08 15:29:05;;;;;;;3.90;1.73;;;;;16.20;99893.00;;;;10465696;28;20197;-79
2022/11/08 15:34:24;;;;;;;5.32;1.55;;;;;15.80;99907.00;;;;10465435;28;20197;-78
2022/11/08 15:39:45;;;;;;;5.07;1.65;;;;;15.50;99903.00;;;;10448860;28;20224;-79
2022/11/08 15:45:03;;;;;;;5.30;1.80;;;;;15.30;99905.00;;;;10432137;28;20194;-79
2022/11/08 15:50:29;;;;;;;3.88;1.58;;;;;15.10;99896.00;;;;10448544;28;20186;-78
2022/11/08 15:55:36;;;;;;;3.33;1.40;;;;;15.00;99892.00;;;;10463913;28;20201;-79
2022/11/08 16:00:44;;;;;;;6.10;1.80;;;;;14.80;99913.00;;;;10464447;28;20206;-78
2022/11/08 16:05:46;;;;;;;2.97;1.50;;;;;14.70;99902.00;;;;10447742;28;20213;-79
2022/11/08 16:10:59;;;;;;;4.03;1.50;;;;;14.60;99906.00;;;;10431164;28;20193;-79
2022/11/08 16:16:08;;;;;;;3.58;1.65;;;;;14.40;99899.00;;;;10480106;28;20197;-78
2022/11/08 16:21:12;;;;;;;5.13;1.73;;;;;14.40;99902.00;;;;10445794;28;20222;-79
2022/11/08 16:26:16;;;;;;;6.78;1.60;;;;;14.30;99900.00;;;;10446997;28;20288;-78
2022/11/08 16:31:18;;;;;;;4.25;1.75;;;;;14.30;99895.00;;;;10446514;28;20198;-78
2022/11/08 16:36:26;;;;;;;4.93;1.60;;;;;14.30;99893.00;;;;10421544;28;20214;-79
2022/11/08 16:41:28;;;;;;;2.78;1.30;;;;;14.30;99891.00;;;;10421653;28;20195;-78
2022/11/08 16:46:30;;;;;;;5.95;1.77;;;;;14.40;99888.00;;;;10389223;28;20198;-78
2022/11/08 16:51:32;;;;;;;2.78;1.42;;;;;14.40;99875.00;;;;10421503;28;20193;-79
2022/11/08 16:56:34;;;;;;;3.67;1.55;;;;;14.30;99877.00;;;;10470063;28;20575;-79
2022/11/08 17:01:37;;;;;;;4.22;1.90;;;;;14.40;99879.00;;;;10461572;28;20253;-79
2022/11/08 17:06:39;;;;;;;4.03;1.48;;;;;14.50;99886.00;;;;10432266;28;20657;-79
2022/11/08 17:11:41;;;;;;;2.45;1.50;;;;;14.50;99882.00;;;;10404088;28;20221;-79
2022/11/08 17:16:43;;;;;;;5.47;1.80;;;;;14.50;99878.00;;;;10420477;28;20218;-79
2022/11/08 17:21:44;;;;;;;3.78;1.73;;;;;14.50;99879.00;;;;10460133;28;20200;-78
2022/11/08 17:26:46;;;;;;;2.75;1.40;;;;;14.50;99885.00;;;;10462236;28;20216;-79
2022/11/08 17:31:49;;;;;;;4.40;1.70;;;;;14.50;99880.00;;;;10461945;28;20284;-77
2022/11/08 17:36:51;;;;;;;3.50;1.80;;;;;14.50;99881.00;;;;10444038;28;20675;-78
2022/11/08 17:41:53;;;;;;;3.83;1.50;;;;;14.50;99878.00;;;;10478094;28;20190;-79
2022/11/08 17:46:55;;;;;;;2.45;1.45;;;;;14.40;99887.00;;;;10428279;28;20239;-78
2022/11/08 17:51:57;;;;;;;4.43;1.73;;;;;14.40;99890.00;;;;10402545;28;20268;-78
2022/11/08 17:56:59;;;;;;;5.93;1.90;;;;;14.40;99888.00;;;;10403116;28;20206;-78
2022/11/08 18:02:02;;;;;;;5.72;1.95;;;;;14.40;99880.00;;;;10419449;28;20193;-78
2022/11/08 18:07:04;;;;;;;4.82;1.52;;;;;14.40;99891.00;;;;10451030;28;20213;-78
2022/11/08 18:12:06;;;;;;;2.33;1.42;;;;;14.40;99894.00;;;;10476050;28;20720;-78
2022/11/08 18:17:08;;;;;;;2.35;1.40;;;;;14.40;99888.00;;;;10419049;28;20210;-78
2022/11/08 18:22:10;;;;;;;7.53;2.00;;;;;14.50;99890.00;;;;10435517;28;20616;-78
2022/11/08 18:27:12;;;;;;;4.18;1.27;;;;;14.60;99884.00;;;;10442988;28;20209;-78
2022/11/08 18:32:14;;;;;;;3.95;1.40;;;;;14.70;99894.00;;;;10443156;28;20197;-79
2022/11/08 18:37:16;;;;;;;4.32;1.60;;;;;14.70;99887.00;;;;10442813;28;20210;-78
2022/11/08 18:42:18;;;;;;;3.10;1.67;;;;;14.60;99894.00;;;;10444707;28;20718;-78
2022/11/08 18:47:20;;;;;;;4.63;2.10;;;;;14.70;99883.00;;;;10435172;28;20706;-78
2022/11/08 18:52:22;;;;;;;2.67;1.63;;;;;14.70;99891.00;;;;10451723;28;20182;-79
2022/11/08 18:57:24;;;;;;;2.30;1.50;;;;;14.70;99883.00;;;;10453222;28;20255;-79
2022/11/08 19:02:26;;;;;;;3.88;1.83;;;;;14.70;99884.00;;;;10452052;28;20243;-79
2022/11/08 19:07:28;;;;;;;4.22;1.92;;;;;14.80;99891.00;;;;10415852;28;20768;-78
2022/11/08 19:12:30;;;;;;;3.72;1.45;;;;;14.70;99880.00;;;;10409942;28;20190;-78
2022/11/08 19:17:34;;;;;;;4.47;1.80;;;;;14.70;99878.00;;;;10426116;28;20676;-78
2022/11/08 19:22:36;;;;;;;6.40;1.83;;;;;14.70;99893.00;;;;10426244;28;20691;-78
2022/11/08 19:27:38;;;;;;;4.00;1.98;;;;;14.60;99895.00;;;;10466342;28;20664;-78
2022/11/08 19:32:40;;;;;;;2.83;1.67;;;;;14.60;99895.00;;;;10466114;28;20660;-79
2022/11/08 19:37:43;;;;;;;2.83;1.48;;;;;14.70;99903.00;;;;10411200;28;20619;-78
2022/11/08 19:42:45;;;;;;;2.45;1.80;;;;;14.80;99894.00;;;;10456966;28;20179;-78
2022/11/08 19:47:49;;;;;;;3.20;1.70;;;;;14.70;99908.00;;;;10407505;28;20194;-79
2022/11/08 19:52:51;;;;;;;6.57;2.40;;;;;14.80;99906.00;;;;10456617;28;20182;-78
2022/11/08 19:57:53;;;;;;;6.90;2.78;;;;;14.90;99909.00;;;;10457139;28;20206;-78
2022/11/08 20:02:55;;;;;;;8.18;1.70;;;;;14.90;99904.00;;;;10463636;28;20297;-80
2022/11/08 20:07:57;;;;;;;5.30;1.80;;;;;14.90;99916.00;;;;10480532;28;20220;-78
2022/11/08 20:12:59;;;;;;;3.25;1.85;;;;;14.90;99926.00;;;;10480153;28;20891;-78
2022/11/08 20:18:01;;;;;;;8.07;1.80;;;;;15.00;99928.00;;;;10435136;28;20224;-78
2022/11/08 20:23:03;;;;;;;5.95;2.42;;;;;14.80;99949.00;;;;10480285;28;20197;-78
2022/11/08 20:28:06;;;;;;;6.38;1.67;;;;;14.80;99957.00;;;;10463701;28;20250;-79
2022/11/08 20:33:08;;;;;;;4.75;1.95;;;;;14.80;99949.00;;;;10463065;28;20190;-78
2022/11/08 20:38:10;;;;;;;4.72;1.70;;;;;14.70;99963.00;;;;10430035;28;20209;-78
2022/11/08 20:43:12;;;;;;;6.18;2.67;;;;;14.70;99966.00;;;;10447729;28;20201;-79
2022/11/08 20:48:14;;;;;;;4.07;1.90;;;;;14.70;99971.00;;;;10446687;28;20197;-79
2022/11/08 20:53:16;;;;;;;5.03;2.10;;;;;14.60;99976.00;;;;10445869;28;20217;-78
2022/11/08 20:58:18;;;;;;;5.70;1.70;;;;;14.50;99969.00;;;;10479541;28;20198;-79
2022/11/08 21:03:21;;;;;;;5.18;2.00;;;;;14.50;99973.00;;;;10445376;28;20194;-79
2022/11/08 21:08:24;;;;;;;8.15;2.50;;;;;14.50;99961.00;;;;10429991;28;20212;-80
2022/11/08 21:13:46;;;;;;;4.82;1.58;;;;;14.30;99957.00;;;;10448501;28;20177;-79
2022/11/08 21:18:48;;;;;;;5.13;2.17;;;;;14.30;99968.00;;;;10437879;28;20198;-79
2022/11/08 21:23:50;;;;;;;4.10;1.90;;;;;14.30;99973.00;;;;10416567;28;20213;-80
2022/11/08 21:28:53;;;;;;;6.03;1.58;;;;;14.20;99970.00;;;;10460911;28;20243;-79
2022/11/08 21:33:55;;;;;;;5.82;2.15;;;;;14.20;99988.00;;;;10437831;28;20205;-79
2022/11/08 21:38:57;;;;;;;4.72;1.65;;;;;14.20;99986.00;;;;10420896;28;20577;-79
2022/11/08 21:43:59;;;;;;;3.15;1.48;;;;;14.20;99994.00;;;;10404191;28;20202;-79
2022/11/08 21:49:01;;;;;;;3.33;1.83;;;;;14.30;99990.00;;;;10419736;28;20197;-79
2022/11/08 21:54:03;;;;;;;6.38;1.75;;;;;14.20;99990.00;;;;10427209;28;20194;-79
2022/11/08 21:59:05;;;;;;;5.20;1.67;;;;;14.30;99996.00;;;;10426916;28;20272;-79
2022/11/08 22:04:07;;;;;;;6.38;1.90;;;;;14.20;99990.00;;;;10395422;28;20221;-79
2022/11/08 22:09:09;;;;;;;3.38;1.33;;;;;14.20;99996.00;;;;10461288;28;20549;-79
2022/11/08 22:14:11;;;;;;;2.33;1.35;;;;;14.30;99996.00;;;;10428423;28;20220;-78
2022/11/08 22:19:13;;;;;;;6.20;1.70;;;;;14.20;99988.00;;;;10424653;28;20206;-79
2022/11/08 22:24:21;;;;;;;4.68;1.55;;;;;14.20;100006.00;;;;10443349;28;20197;-79
2022/11/08 22:29:22;;;;;;;3.90;1.60;;;;;14.10;99995.00;;;;10467915;28;20588;-79
2022/11/08 22:34:24;;;;;;;5.18;1.90;;;;;14.10;99994.00;;;;10451091;28;20189;-79
2022/11/08 22:39:26;;;;;;;4.85;1.63;;;;;14.10;99993.00;;;;10451305;28;20668;-78
2022/11/08 22:44:28;;;;;;;4.20;1.67;;;;;13.90;99984.00;;;;10451406;28;20178;-78
2022/11/08 22:49:30;;;;;;;5.57;1.63;;;;;13.80;99995.00;;;;10450608;28;20196;-78
2022/11/08 22:54:32;;;;;;;5.23;1.87;;;;;13.70;99996.00;;;;10450504;28;20571;-78
2022/11/08 22:59:34;;;;;;;5.07;1.50;;;;;13.80;100001.00;;;;10466517;28;20217;-79
2022/11/08 23:04:36;;;;;;;4.37;1.40;;;;;13.90;100005.00;;;;10445354;28;20221;-78
2022/11/08 23:09:38;;;;;;;4.70;1.80;;;;;14.00;100008.00;;;;10425743;28;20194;-79
2022/11/08 23:25:21;;;;;;;3.20;1.80;;;;;14.10;99999.00;;;;10465534;28;20209;-79
2022/11/08 23:36:09;;;;;;;4.55;1.73;;;;;14.20;99999.00;;;;10461121;28;20213;-78
2022/11/08 23:46:25;;;;;;;3.03;1.40;;;;;14.30;100003.00;;;;10424051;28;20244;-79
2022/11/08 23:51:27;;;;;;;4.87;1.47;;;;;14.30;100004.00;;;;10407803;28;20187;-79
2022/11/08 23:56:29;;;;;;;7.90;1.77;;;;;14.30;100006.00;;;;10455164;28;20202;-79
